sensor_id;sensor_type;location;lat;lon;timestamp;P1;durP1;ratioP1;P2;durP2;ratioP2
23159;SDS011;11748;50.844;4.396;2023-02-01T00:00:12;18.40;;;8.10;;
23159;SDS011;11748;50.844;4.396;2023-02-01T00:02:40;20.80;;;8.45;;
23159;SDS011;11748;50.844;4.396;2023-02-01T00:05:07;20.73;;;9.20;;
23159;SDS011;11748;50.844;4.396;2023-02-01T00:07:34;24.27;;;9.85;;
23159;SDS011;11748;50.844;4.396;2023-02-01T00:10:01;23.13;;;10.07;;
23159;SDS011;11748;50.844;4.396;2023-02-01T00:12:28;26.77;;;9.82;;
23159;SDS011;11748;50.844;4.396;2023-02-01T00:14:54;30.38;;;10.27;;
23159;SDS011;11748;50.844;4.396;2023-02-01T00:17:20;22.08;;;9.00;;
23159;SDS011;11748;50.844;4.396;2023-02-01T00:19:46;24.67;;;9.80;;
23159;SDS011;11748;50.844;4.396;2023-02-01T00:22:12;24.67;;;10.32;;
23159;SDS011;11748;50.844;4.396;2023-02-01T00:24:40;22.65;;;10.32;;
23159;SDS011;11748;50.844;4.396;2023-02-01T00:27:06;25.10;;;10.05;;
23159;SDS011;11748;50.844;4.396;2023-02-01T00:29:31;28.67;;;9.90;;
23159;SDS011;11748;50.844;4.396;2023-02-01T00:31:57;31.08;;;10.60;;
23159;SDS011;11748;50.844;4.396;2023-02-01T00:34:23;22.20;;;9.95;;
23159;SDS011;11748;50.844;4.396;2023-02-01T00:36:48;26.52;;;9.95;;
23159;SDS011;11748;50.844;4.396;2023-02-01T00:39:14;25.33;;;10.02;;
23159;SDS011;11748;50.844;4.396;2023-02-01T00:41:40;21.92;;;8.98;;
23159;SDS011;11748;50.844;4.396;2023-02-01T00:44:06;22.45;;;9.13;;
23159;SDS011;11748;50.844;4.396;2023-02-01T00:46:32;25.08;;;9.15;;
23159;SDS011;11748;50.844;4.396;2023-02-01T00:48:58;19.83;;;7.40;;
23159;SDS011;11748;50.844;4.396;2023-02-01T00:51:25;24.10;;;7.32;;
23159;SDS011;11748;50.844;4.396;2023-02-01T00:53:53;22.17;;;7.55;;
23159;SDS011;11748;50.844;4.396;2023-02-01T00:56:19;18.00;;;7.25;;
23159;SDS011;11748;50.844;4.396;2023-02-01T00:58:45;21.05;;;8.23;;
23159;SDS011;11748;50.844;4.396;2023-02-01T01:03:41;21.30;;;6.90;;
23159;SDS011;11748;50.844;4.396;2023-02-01T01:06:10;19.90;;;8.05;;
23159;SDS011;11748;50.844;4.396;2023-02-01T01:08:40;21.15;;;7.22;;
23159;SDS011;11748;50.844;4.396;2023-02-01T01:11:48;27.17;;;7.45;;
23159;SDS011;11748;50.844;4.396;2023-02-01T01:13:58;22.90;;;7.45;;
23159;SDS011;11748;50.844;4.396;2023-02-01T01:16:25;24.73;;;7.65;;
23159;SDS011;11748;50.844;4.396;2023-02-01T01:18:51;21.85;;;7.20;;
23159;SDS011;11748;50.844;4.396;2023-02-01T01:21:18;18.08;;;7.50;;
23159;SDS011;11748;50.844;4.396;2023-02-01T01:23:44;22.15;;;6.88;;
23159;SDS011;11748;50.844;4.396;2023-02-01T01:26:15;21.95;;;6.90;;
23159;SDS011;11748;50.844;4.396;2023-02-01T01:28:45;19.13;;;6.53;;
23159;SDS011;11748;50.844;4.396;2023-02-01T01:31:12;23.40;;;5.88;;
23159;SDS011;11748;50.844;4.396;2023-02-01T01:33:39;16.48;;;5.25;;
23159;SDS011;11748;50.844;4.396;2023-02-01T01:36:05;22.05;;;6.63;;
23159;SDS011;11748;50.844;4.396;2023-02-01T01:38:35;21.63;;;5.78;;
23159;SDS011;11748;50.844;4.396;2023-02-01T01:41:00;19.27;;;6.28;;
23159;SDS011;11748;50.844;4.396;2023-02-01T01:43:44;15.65;;;4.63;;
23159;SDS011;11748;50.844;4.396;2023-02-01T01:46:20;17.13;;;4.15;;
23159;SDS011;11748;50.844;4.396;2023-02-01T01:54:25;19.27;;;4.38;;
23159;SDS011;11748;50.844;4.396;2023-02-01T01:56:57;16.50;;;4.30;;
23159;SDS011;11748;50.844;4.396;2023-02-01T01:59:27;14.60;;;3.53;;
23159;SDS011;11748;50.844;4.396;2023-02-01T02:01:53;21.55;;;4.75;;
23159;SDS011;11748;50.844;4.396;2023-02-01T02:04:20;19.90;;;4.38;;
23159;SDS011;11748;50.844;4.396;2023-02-01T02:07:32;18.92;;;4.30;;
23159;SDS011;11748;50.844;4.396;2023-02-01T02:09:37;13.10;;;3.60;;
23159;SDS011;11748;50.844;4.396;2023-02-01T02:12:03;16.70;;;4.07;;
23159;SDS011;11748;50.844;4.396;2023-02-01T02:14:29;15.80;;;3.15;;
23159;SDS011;11748;50.844;4.396;2023-02-01T02:36:17;20.70;;;4.40;;
23159;SDS011;11748;50.844;4.396;2023-02-01T02:39:21;20.75;;;4.30;;
23159;SDS011;11748;50.844;4.396;2023-02-01T02:48:07;19.67;;;4.35;;
23159;SDS011;11748;50.844;4.396;2023-02-01T02:50:41;19.42;;;4.97;;
23159;SDS011;11748;50.844;4.396;2023-02-01T02:53:38;18.35;;;4.50;;
23159;SDS011;11748;50.844;4.396;2023-02-01T02:56:30;22.92;;;4.43;;
23159;SDS011;11748;50.844;4.396;2023-02-01T02:59:15;11.50;;;3.08;;
23159;SDS011;11748;50.844;4.396;2023-02-01T03:02:05;17.63;;;4.00;;
23159;SDS011;11748;50.844;4.396;2023-02-01T03:04:55;15.02;;;4.15;;
23159;SDS011;11748;50.844;4.396;2023-02-01T03:12:59;22.02;;;4.43;;
23159;SDS011;11748;50.844;4.396;2023-02-01T03:15:36;17.55;;;3.63;;
23159;SDS011;11748;50.844;4.396;2023-02-01T03:18:10;15.73;;;3.75;;
23159;SDS011;11748;50.844;4.396;2023-02-01T03:20:57;17.75;;;3.70;;
23159;SDS011;11748;50.844;4.396;2023-02-01T03:23:26;14.23;;;3.13;;
23159;SDS011;11748;50.844;4.396;2023-02-01T03:25:55;17.48;;;3.78;;
23159;SDS011;11748;50.844;4.396;2023-02-01T03:28:26;17.70;;;4.38;;
23159;SDS011;11748;50.844;4.396;2023-02-01T03:30:54;17.10;;;3.63;;
23159;SDS011;11748;50.844;4.396;2023-02-01T03:33:21;21.58;;;4.70;;
23159;SDS011;11748;50.844;4.396;2023-02-01T03:44:14;16.58;;;4.18;;
23159;SDS011;11748;50.844;4.396;2023-02-01T03:49:46;17.42;;;3.60;;
23159;SDS011;11748;50.844;4.396;2023-02-01T03:52:40;20.98;;;4.55;;
23159;SDS011;11748;50.844;4.396;2023-02-01T03:55:33;12.15;;;3.33;;
23159;SDS011;11748;50.844;4.396;2023-02-01T03:58:02;17.63;;;3.97;;
23159;SDS011;11748;50.844;4.396;2023-02-01T04:00:40;18.92;;;3.80;;
23159;SDS011;11748;50.844;4.396;2023-02-01T04:03:11;20.58;;;4.57;;
23159;SDS011;11748;50.844;4.396;2023-02-01T04:05:37;20.42;;;4.47;;
23159;SDS011;11748;50.844;4.396;2023-02-01T04:08:02;17.38;;;4.35;;
23159;SDS011;11748;50.844;4.396;2023-02-01T04:10:31;15.48;;;3.88;;
23159;SDS011;11748;50.844;4.396;2023-02-01T04:12:56;17.95;;;3.67;;
23159;SDS011;11748;50.844;4.396;2023-02-01T04:15:22;25.38;;;4.13;;
23159;SDS011;11748;50.844;4.396;2023-02-01T04:17:48;18.65;;;3.90;;
23159;SDS011;11748;50.844;4.396;2023-02-01T04:20:13;21.85;;;3.92;;
23159;SDS011;11748;50.844;4.396;2023-02-01T04:22:39;20.90;;;4.13;;
23159;SDS011;11748;50.844;4.396;2023-02-01T04:25:05;18.80;;;4.40;;
23159;SDS011;11748;50.844;4.396;2023-02-01T04:27:31;15.45;;;3.25;;
23159;SDS011;11748;50.844;4.396;2023-02-01T04:29:57;22.63;;;4.15;;
23159;SDS011;11748;50.844;4.396;2023-02-01T04:32:23;14.52;;;4.40;;
23159;SDS011;11748;50.844;4.396;2023-02-01T04:34:49;24.98;;;4.43;;
23159;SDS011;11748;50.844;4.396;2023-02-01T04:37:22;22.13;;;4.45;;
23159;SDS011;11748;50.844;4.396;2023-02-01T04:39:48;22.27;;;3.88;;
23159;SDS011;11748;50.844;4.396;2023-02-01T04:42:14;16.83;;;3.75;;
23159;SDS011;11748;50.844;4.396;2023-02-01T04:44:39;22.30;;;4.05;;
23159;SDS011;11748;50.844;4.396;2023-02-01T04:47:06;18.20;;;3.85;;
23159;SDS011;11748;50.844;4.396;2023-02-01T04:49:32;18.52;;;4.00;;
23159;SDS011;11748;50.844;4.396;2023-02-01T04:51:58;22.35;;;4.57;;
23159;SDS011;11748;50.844;4.396;2023-02-01T04:54:24;22.75;;;4.97;;
23159;SDS011;11748;50.844;4.396;2023-02-01T04:56:50;18.10;;;3.55;;
23159;SDS011;11748;50.844;4.396;2023-02-01T04:59:17;16.35;;;4.43;;
23159;SDS011;11748;50.844;4.396;2023-02-01T05:01:42;20.42;;;4.10;;
23159;SDS011;11748;50.844;4.396;2023-02-01T05:04:08;19.90;;;4.38;;
23159;SDS011;11748;50.844;4.396;2023-02-01T05:06:34;18.52;;;3.83;;
23159;SDS011;11748;50.844;4.396;2023-02-01T05:08:59;18.30;;;3.90;;
23159;SDS011;11748;50.844;4.396;2023-02-01T05:11:25;13.52;;;3.65;;
23159;SDS011;11748;50.844;4.396;2023-02-01T05:14:09;18.92;;;4.05;;
23159;SDS011;11748;50.844;4.396;2023-02-01T05:16:35;17.80;;;3.97;;
23159;SDS011;11748;50.844;4.396;2023-02-01T05:19:00;19.42;;;4.55;;
23159;SDS011;11748;50.844;4.396;2023-02-01T05:21:27;19.17;;;3.42;;
23159;SDS011;11748;50.844;4.396;2023-02-01T05:23:53;24.13;;;4.18;;
23159;SDS011;11748;50.844;4.396;2023-02-01T05:26:37;24.17;;;3.90;;
23159;SDS011;11748;50.844;4.396;2023-02-01T05:29:06;19.95;;;3.97;;
23159;SDS011;11748;50.844;4.396;2023-02-01T05:31:35;21.55;;;3.90;;
23159;SDS011;11748;50.844;4.396;2023-02-01T05:34:01;19.63;;;3.53;;
23159;SDS011;11748;50.844;4.396;2023-02-01T05:36:27;15.35;;;3.30;;
23159;SDS011;11748;50.844;4.396;2023-02-01T05:38:52;23.67;;;4.15;;
23159;SDS011;11748;50.844;4.396;2023-02-01T05:41:20;19.75;;;3.22;;
23159;SDS011;11748;50.844;4.396;2023-02-01T05:43:46;12.80;;;3.35;;
23159;SDS011;11748;50.844;4.396;2023-02-01T05:46:13;21.98;;;4.28;;
23159;SDS011;11748;50.844;4.396;2023-02-01T05:48:39;19.73;;;3.35;;
23159;SDS011;11748;50.844;4.396;2023-02-01T05:51:05;17.33;;;3.72;;
23159;SDS011;11748;50.844;4.396;2023-02-01T05:53:32;20.10;;;3.47;;
23159;SDS011;11748;50.844;4.396;2023-02-01T05:55:58;22.90;;;3.80;;
23159;SDS011;11748;50.844;4.396;2023-02-01T05:58:23;23.88;;;3.65;;
23159;SDS011;11748;50.844;4.396;2023-02-01T06:00:49;26.33;;;5.32;;
23159;SDS011;11748;50.844;4.396;2023-02-01T06:03:16;16.52;;;3.88;;
23159;SDS011;11748;50.844;4.396;2023-02-01T06:05:48;17.45;;;3.92;;
23159;SDS011;11748;50.844;4.396;2023-02-01T06:08:13;25.08;;;4.32;;
23159;SDS011;11748;50.844;4.396;2023-02-01T06:10:39;13.90;;;3.83;;
23159;SDS011;11748;50.844;4.396;2023-02-01T06:13:05;15.50;;;3.88;;
23159;SDS011;11748;50.844;4.396;2023-02-01T06:15:31;19.10;;;4.40;;
23159;SDS011;11748;50.844;4.396;2023-02-01T06:17:58;18.83;;;3.55;;
23159;SDS011;11748;50.844;4.396;2023-02-01T06:20:25;19.02;;;3.88;;
23159;SDS011;11748;50.844;4.396;2023-02-01T06:22:53;21.35;;;3.53;;
23159;SDS011;11748;50.844;4.396;2023-02-01T06:25:18;18.95;;;4.25;;
23159;SDS011;11748;50.844;4.396;2023-02-01T06:27:46;17.52;;;3.45;;
23159;SDS011;11748;50.844;4.396;2023-02-01T06:30:12;17.70;;;4.35;;
23159;SDS011;11748;50.844;4.396;2023-02-01T06:32:41;21.65;;;4.05;;
23159;SDS011;11748;50.844;4.396;2023-02-01T06:35:08;18.50;;;3.83;;
23159;SDS011;11748;50.844;4.396;2023-02-01T06:37:38;18.90;;;4.57;;
23159;SDS011;11748;50.844;4.396;2023-02-01T06:40:04;17.27;;;4.22;;
23159;SDS011;11748;50.844;4.396;2023-02-01T06:42:30;19.73;;;4.20;;
23159;SDS011;11748;50.844;4.396;2023-02-01T06:44:56;16.83;;;3.90;;
23159;SDS011;11748;50.844;4.396;2023-02-01T06:47:21;26.92;;;4.72;;
23159;SDS011;11748;50.844;4.396;2023-02-01T06:49:47;19.55;;;3.85;;
23159;SDS011;11748;50.844;4.396;2023-02-01T06:52:13;18.75;;;3.90;;
23159;SDS011;11748;50.844;4.396;2023-02-01T06:54:39;21.23;;;4.07;;
23159;SDS011;11748;50.844;4.396;2023-02-01T06:57:04;16.92;;;3.78;;
23159;SDS011;11748;50.844;4.396;2023-02-01T06:59:30;23.20;;;5.20;;
23159;SDS011;11748;50.844;4.396;2023-02-01T07:01:58;17.35;;;3.38;;
23159;SDS011;11748;50.844;4.396;2023-02-01T07:04:24;19.95;;;4.15;;
23159;SDS011;11748;50.844;4.396;2023-02-01T07:06:52;18.23;;;3.78;;
23159;SDS011;11748;50.844;4.396;2023-02-01T07:09:18;17.83;;;3.88;;
23159;SDS011;11748;50.844;4.396;2023-02-01T07:11:43;21.63;;;4.03;;
23159;SDS011;11748;50.844;4.396;2023-02-01T07:14:10;25.65;;;4.57;;
23159;SDS011;11748;50.844;4.396;2023-02-01T07:16:36;21.52;;;4.72;;
23159;SDS011;11748;50.844;4.396;2023-02-01T07:19:04;17.92;;;3.53;;
23159;SDS011;11748;50.844;4.396;2023-02-01T07:21:33;16.85;;;4.20;;
23159;SDS011;11748;50.844;4.396;2023-02-01T07:23:59;20.48;;;3.53;;
23159;SDS011;11748;50.844;4.396;2023-02-01T07:26:24;27.50;;;4.13;;
23159;SDS011;11748;50.844;4.396;2023-02-01T07:28:51;19.55;;;4.25;;
23159;SDS011;11748;50.844;4.396;2023-02-01T07:31:19;25.05;;;4.20;;
23159;SDS011;11748;50.844;4.396;2023-02-01T07:33:47;20.83;;;4.00;;
23159;SDS011;11748;50.844;4.396;2023-02-01T07:36:18;23.77;;;4.72;;
23159;SDS011;11748;50.844;4.396;2023-02-01T07:38:44;25.75;;;4.80;;
23159;SDS011;11748;50.844;4.396;2023-02-01T07:41:12;22.60;;;5.07;;
23159;SDS011;11748;50.844;4.396;2023-02-01T07:43:37;21.42;;;4.82;;
23159;SDS011;11748;50.844;4.396;2023-02-01T07:46:04;20.48;;;5.00;;
23159;SDS011;11748;50.844;4.396;2023-02-01T07:48:30;19.98;;;4.43;;
23159;SDS011;11748;50.844;4.396;2023-02-01T07:51:08;19.52;;;3.85;;
23159;SDS011;11748;50.844;4.396;2023-02-01T07:53:35;26.63;;;4.30;;
23159;SDS011;11748;50.844;4.396;2023-02-01T07:56:03;19.58;;;3.83;;
23159;SDS011;11748;50.844;4.396;2023-02-01T07:58:29;28.08;;;4.38;;
23159;SDS011;11748;50.844;4.396;2023-02-01T08:00:55;20.33;;;4.50;;
23159;SDS011;11748;50.844;4.396;2023-02-01T08:03:39;22.40;;;3.92;;
23159;SDS011;11748;50.844;4.396;2023-02-01T08:06:08;25.20;;;4.95;;
23159;SDS011;11748;50.844;4.396;2023-02-01T08:08:34;21.00;;;4.80;;
23159;SDS011;11748;50.844;4.396;2023-02-01T08:11:00;19.88;;;4.88;;
23159;SDS011;11748;50.844;4.396;2023-02-01T08:13:29;24.70;;;4.60;;
23159;SDS011;11748;50.844;4.396;2023-02-01T08:16:01;22.38;;;4.93;;
23159;SDS011;11748;50.844;4.396;2023-02-01T08:18:29;18.77;;;4.05;;
23159;SDS011;11748;50.844;4.396;2023-02-01T08:20:55;17.20;;;3.80;;
23159;SDS011;11748;50.844;4.396;2023-02-01T08:23:21;23.02;;;4.55;;
23159;SDS011;11748;50.844;4.396;2023-02-01T08:25:47;27.35;;;4.55;;
23159;SDS011;11748;50.844;4.396;2023-02-01T08:28:13;19.02;;;4.20;;
23159;SDS011;11748;50.844;4.396;2023-02-01T08:30:50;16.95;;;4.55;;
23159;SDS011;11748;50.844;4.396;2023-02-01T08:33:16;17.65;;;4.55;;
23159;SDS011;11748;50.844;4.396;2023-02-01T08:35:41;24.92;;;5.10;;
23159;SDS011;11748;50.844;4.396;2023-02-01T08:38:07;23.23;;;4.75;;
23159;SDS011;11748;50.844;4.396;2023-02-01T08:40:33;24.13;;;5.40;;
23159;SDS011;11748;50.844;4.396;2023-02-01T08:43:00;20.27;;;4.00;;
23159;SDS011;11748;50.844;4.396;2023-02-01T08:45:26;23.45;;;3.95;;
23159;SDS011;11748;50.844;4.396;2023-02-01T08:47:54;19.27;;;3.78;;
23159;SDS011;11748;50.844;4.396;2023-02-01T08:50:21;21.50;;;4.43;;
23159;SDS011;11748;50.844;4.396;2023-02-01T08:52:48;20.45;;;4.68;;
23159;SDS011;11748;50.844;4.396;2023-02-01T08:55:13;19.85;;;4.65;;
23159;SDS011;11748;50.844;4.396;2023-02-01T08:57:40;22.17;;;4.35;;
23159;SDS011;11748;50.844;4.396;2023-02-01T09:00:07;14.98;;;3.55;;
23159;SDS011;11748;50.844;4.396;2023-02-01T09:02:35;20.35;;;4.25;;
23159;SDS011;11748;50.844;4.396;2023-02-01T09:05:01;26.02;;;5.05;;
23159;SDS011;11748;50.844;4.396;2023-02-01T09:07:29;22.02;;;5.18;;
23159;SDS011;11748;50.844;4.396;2023-02-01T09:09:54;21.20;;;4.30;;
23159;SDS011;11748;50.844;4.396;2023-02-01T09:12:21;23.38;;;4.22;;
23159;SDS011;11748;50.844;4.396;2023-02-01T09:14:47;29.13;;;4.40;;
23159;SDS011;11748;50.844;4.396;2023-02-01T09:17:13;22.02;;;4.18;;
23159;SDS011;11748;50.844;4.396;2023-02-01T09:19:38;19.10;;;4.13;;
23159;SDS011;11748;50.844;4.396;2023-02-01T09:22:04;17.55;;;3.70;;
23159;SDS011;11748;50.844;4.396;2023-02-01T09:24:32;23.98;;;4.28;;
23159;SDS011;11748;50.844;4.396;2023-02-01T09:26:58;20.80;;;4.38;;
23159;SDS011;11748;50.844;4.396;2023-02-01T09:29:24;18.17;;;3.88;;
23159;SDS011;11748;50.844;4.396;2023-02-01T09:31:49;22.77;;;4.22;;
23159;SDS011;11748;50.844;4.396;2023-02-01T09:34:17;25.52;;;4.40;;
23159;SDS011;11748;50.844;4.396;2023-02-01T09:36:43;23.00;;;4.60;;
23159;SDS011;11748;50.844;4.396;2023-02-01T09:39:09;19.88;;;4.45;;
23159;SDS011;11748;50.844;4.396;2023-02-01T09:42:24;20.92;;;4.57;;
23159;SDS011;11748;50.844;4.396;2023-02-01T09:44:42;24.05;;;4.53;;
23159;SDS011;11748;50.844;4.396;2023-02-01T09:47:42;19.92;;;3.90;;
23159;SDS011;11748;50.844;4.396;2023-02-01T09:50:19;22.45;;;4.18;;
23159;SDS011;11748;50.844;4.396;2023-02-01T09:55:26;19.00;;;4.65;;
23159;SDS011;11748;50.844;4.396;2023-02-01T09:57:57;20.45;;;4.65;;
23159;SDS011;11748;50.844;4.396;2023-02-01T10:00:34;23.35;;;5.45;;
23159;SDS011;11748;50.844;4.396;2023-02-01T10:03:02;18.90;;;4.43;;
23159;SDS011;11748;50.844;4.396;2023-02-01T10:06:32;20.52;;;3.75;;
23159;SDS011;11748;50.844;4.396;2023-02-01T10:08:40;18.55;;;4.35;;
23159;SDS011;11748;50.844;4.396;2023-02-01T10:27:53;17.63;;;3.90;;
23159;SDS011;11748;50.844;4.396;2023-02-01T10:30:25;19.98;;;3.42;;
23159;SDS011;11748;50.844;4.396;2023-02-01T10:35:28;13.18;;;3.30;;
23159;SDS011;11748;50.844;4.396;2023-02-01T10:38:03;15.95;;;3.00;;
23159;SDS011;11748;50.844;4.396;2023-02-01T10:40:35;25.92;;;3.85;;
23159;SDS011;11748;50.844;4.396;2023-02-01T10:43:02;18.33;;;4.07;;
23159;SDS011;11748;50.844;4.396;2023-02-01T10:45:32;16.95;;;3.20;;
23159;SDS011;11748;50.844;4.396;2023-02-01T10:47:59;20.55;;;4.35;;
23159;SDS011;11748;50.844;4.396;2023-02-01T10:53:18;10.30;;;2.95;;
23159;SDS011;11748;50.844;4.396;2023-02-01T10:56:04;16.13;;;3.45;;
23159;SDS011;11748;50.844;4.396;2023-02-01T10:58:32;18.42;;;3.30;;
23159;SDS011;11748;50.844;4.396;2023-02-01T11:06:09;16.13;;;3.20;;
23159;SDS011;11748;50.844;4.396;2023-02-01T11:08:45;16.70;;;4.32;;
23159;SDS011;11748;50.844;4.396;2023-02-01T11:11:15;14.07;;;2.72;;
23159;SDS011;11748;50.844;4.396;2023-02-01T11:13:41;17.90;;;3.88;;
23159;SDS011;11748;50.844;4.396;2023-02-01T11:16:12;18.52;;;3.47;;
23159;SDS011;11748;50.844;4.396;2023-02-01T11:18:39;12.38;;;3.50;;
23159;SDS011;11748;50.844;4.396;2023-02-01T11:21:06;20.73;;;3.45;;
23159;SDS011;11748;50.844;4.396;2023-02-01T11:23:33;16.38;;;3.28;;
23159;SDS011;11748;50.844;4.396;2023-02-01T11:26:12;18.30;;;3.50;;
23159;SDS011;11748;50.844;4.396;2023-02-01T11:29:10;20.02;;;4.78;;
23159;SDS011;11748;50.844;4.396;2023-02-01T11:31:38;11.73;;;2.75;;
23159;SDS011;11748;50.844;4.396;2023-02-01T11:34:06;16.25;;;2.55;;
23159;SDS011;11748;50.844;4.396;2023-02-01T11:36:36;9.35;;;2.40;;
23159;SDS011;11748;50.844;4.396;2023-02-01T11:42:12;16.48;;;3.33;;
23159;SDS011;11748;50.844;4.396;2023-02-01T11:44:41;15.50;;;2.80;;
23159;SDS011;11748;50.844;4.396;2023-02-01T11:47:19;13.13;;;2.70;;
23159;SDS011;11748;50.844;4.396;2023-02-01T11:50:08;11.75;;;2.50;;
23159;SDS011;11748;50.844;4.396;2023-02-01T12:11:45;11.30;;;2.30;;
23159;SDS011;11748;50.844;4.396;2023-02-01T12:14:27;15.60;;;2.60;;
23159;SDS011;11748;50.844;4.396;2023-02-01T12:17:40;17.42;;;2.70;;
23159;SDS011;11748;50.844;4.396;2023-02-01T12:23:33;8.65;;;2.05;;
23159;SDS011;11748;50.844;4.396;2023-02-01T12:25:51;13.23;;;2.05;;
23159;SDS011;11748;50.844;4.396;2023-02-01T12:31:34;13.40;;;2.03;;
23159;SDS011;11748;50.844;4.396;2023-02-01T12:39:37;11.95;;;2.28;;
23159;SDS011;11748;50.844;4.396;2023-02-01T12:42:16;13.98;;;2.47;;
23159;SDS011;11748;50.844;4.396;2023-02-01T12:45:10;11.13;;;2.25;;
23159;SDS011;11748;50.844;4.396;2023-02-01T12:50:19;9.77;;;2.10;;
23159;SDS011;11748;50.844;4.396;2023-02-01T12:52:54;7.05;;;1.73;;
23159;SDS011;11748;50.844;4.396;2023-02-01T12:55:34;10.75;;;1.90;;
23159;SDS011;11748;50.844;4.396;2023-02-01T12:58:10;10.27;;;1.80;;
23159;SDS011;11748;50.844;4.396;2023-02-01T13:00:46;10.13;;;1.48;;
23159;SDS011;11748;50.844;4.396;2023-02-01T13:05:50;10.43;;;2.22;;
23159;SDS011;11748;50.844;4.396;2023-02-01T13:14:02;9.70;;;2.03;;
23159;SDS011;11748;50.844;4.396;2023-02-01T13:17:03;6.68;;;1.48;;
23159;SDS011;11748;50.844;4.396;2023-02-01T13:22:33;10.32;;;2.00;;
23159;SDS011;11748;50.844;4.396;2023-02-01T13:27:49;12.70;;;2.00;;
23159;SDS011;11748;50.844;4.396;2023-02-01T13:30:23;12.80;;;2.05;;
23159;SDS011;11748;50.844;4.396;2023-02-01T13:38:43;13.18;;;2.38;;
23159;SDS011;11748;50.844;4.396;2023-02-01T13:43:41;11.13;;;1.90;;
23159;SDS011;11748;50.844;4.396;2023-02-01T13:46:10;9.57;;;1.98;;
23159;SDS011;11748;50.844;4.396;2023-02-01T13:49:00;12.60;;;1.73;;
23159;SDS011;11748;50.844;4.396;2023-02-01T13:51:46;13.98;;;3.22;;
23159;SDS011;11748;50.844;4.396;2023-02-01T13:54:26;14.57;;;2.80;;
23159;SDS011;11748;50.844;4.396;2023-02-01T13:56:56;12.43;;;2.45;;
23159;SDS011;11748;50.844;4.396;2023-02-01T14:21:22;16.17;;;2.50;;
23159;SDS011;11748;50.844;4.396;2023-02-01T14:26:19;9.52;;;1.67;;
23159;SDS011;11748;50.844;4.396;2023-02-01T14:28:58;11.45;;;2.63;;
23159;SDS011;11748;50.844;4.396;2023-02-01T14:32:20;9.07;;;2.45;;
23159;SDS011;11748;50.844;4.396;2023-02-01T14:42:43;12.23;;;2.45;;
23159;SDS011;11748;50.844;4.396;2023-02-01T14:47:49;10.48;;;2.13;;
23159;SDS011;11748;50.844;4.396;2023-02-01T14:50:21;10.68;;;2.35;;
23159;SDS011;11748;50.844;4.396;2023-02-01T15:09:31;9.43;;;1.92;;
23159;SDS011;11748;50.844;4.396;2023-02-01T15:14:38;12.77;;;2.13;;
23159;SDS011;11748;50.844;4.396;2023-02-01T15:20:03;15.48;;;2.80;;
23159;SDS011;11748;50.844;4.396;2023-02-01T15:22:41;11.18;;;2.42;;
23159;SDS011;11748;50.844;4.396;2023-02-01T15:25:18;11.80;;;2.72;;
23159;SDS011;11748;50.844;4.396;2023-02-01T15:27:49;13.27;;;2.55;;
23159;SDS011;11748;50.844;4.396;2023-02-01T15:30:27;14.13;;;2.22;;
23159;SDS011;11748;50.844;4.396;2023-02-01T15:35:42;13.77;;;2.65;;
23159;SDS011;11748;50.844;4.396;2023-02-01T15:43:23;17.23;;;3.38;;
23159;SDS011;11748;50.844;4.396;2023-02-01T15:45:51;14.07;;;2.55;;
23159;SDS011;11748;50.844;4.396;2023-02-01T15:48:22;12.75;;;2.38;;
23159;SDS011;11748;50.844;4.396;2023-02-01T15:50:51;14.18;;;2.85;;
23159;SDS011;11748;50.844;4.396;2023-02-01T15:53:21;12.43;;;2.53;;
23159;SDS011;11748;50.844;4.396;2023-02-01T15:55:54;8.30;;;2.30;;
23159;SDS011;11748;50.844;4.396;2023-02-01T15:58:22;11.20;;;2.60;;
23159;SDS011;11748;50.844;4.396;2023-02-01T16:00:57;12.77;;;2.97;;
23159;SDS011;11748;50.844;4.396;2023-02-01T16:06:44;11.30;;;3.45;;
23159;SDS011;11748;50.844;4.396;2023-02-01T16:09:13;14.73;;;3.30;;
23159;SDS011;11748;50.844;4.396;2023-02-01T16:12:01;13.80;;;2.40;;
23159;SDS011;11748;50.844;4.396;2023-02-01T16:14:26;14.52;;;3.20;;
23159;SDS011;11748;50.844;4.396;2023-02-01T16:16:55;19.95;;;3.15;;
23159;SDS011;11748;50.844;4.396;2023-02-01T16:19:22;11.60;;;3.80;;
23159;SDS011;11748;50.844;4.396;2023-02-01T16:21:54;12.27;;;2.80;;
23159;SDS011;11748;50.844;4.396;2023-02-01T16:24:21;17.48;;;2.85;;
23159;SDS011;11748;50.844;4.396;2023-02-01T16:26:49;12.68;;;2.47;;
23159;SDS011;11748;50.844;4.396;2023-02-01T16:29:15;16.92;;;3.13;;
23159;SDS011;11748;50.844;4.396;2023-02-01T16:31:41;8.57;;;2.58;;
23159;SDS011;11748;50.844;4.396;2023-02-01T16:34:14;16.38;;;2.55;;
23159;SDS011;11748;50.844;4.396;2023-02-01T16:36:46;18.33;;;3.17;;
23159;SDS011;11748;50.844;4.396;2023-02-01T16:39:16;11.68;;;3.10;;
23159;SDS011;11748;50.844;4.396;2023-02-01T16:41:42;17.85;;;2.85;;
23159;SDS011;11748;50.844;4.396;2023-02-01T16:44:08;14.25;;;3.15;;
23159;SDS011;11748;50.844;4.396;2023-02-01T16:46:35;14.95;;;2.97;;
23159;SDS011;11748;50.844;4.396;2023-02-01T16:49:05;14.20;;;2.75;;
23159;SDS011;11748;50.844;4.396;2023-02-01T16:51:41;11.80;;;2.40;;
23159;SDS011;11748;50.844;4.396;2023-02-01T16:54:07;11.38;;;2.72;;
23159;SDS011;11748;50.844;4.396;2023-02-01T16:56:33;16.77;;;3.15;;
23159;SDS011;11748;50.844;4.396;2023-02-01T16:59:00;15.95;;;3.50;;
23159;SDS011;11748;50.844;4.396;2023-02-01T17:01:27;19.17;;;4.32;;
23159;SDS011;11748;50.844;4.396;2023-02-01T17:03:53;16.60;;;3.30;;
23159;SDS011;11748;50.844;4.396;2023-02-01T17:06:20;15.02;;;2.72;;
23159;SDS011;11748;50.844;4.396;2023-02-01T17:08:51;16.92;;;3.25;;
23159;SDS011;11748;50.844;4.396;2023-02-01T17:11:19;20.98;;;3.75;;
23159;SDS011;11748;50.844;4.396;2023-02-01T17:13:45;10.38;;;2.70;;
23159;SDS011;11748;50.844;4.396;2023-02-01T17:18:59;15.60;;;3.50;;
23159;SDS011;11748;50.844;4.396;2023-02-01T17:21:30;12.55;;;3.08;;
23159;SDS011;11748;50.844;4.396;2023-02-01T17:24:06;14.35;;;3.72;;
23159;SDS011;11748;50.844;4.396;2023-02-01T17:26:34;15.10;;;3.08;;
23159;SDS011;11748;50.844;4.396;2023-02-01T17:29:00;16.92;;;2.95;;
23159;SDS011;11748;50.844;4.396;2023-02-01T17:31:26;18.40;;;3.45;;
23159;SDS011;11748;50.844;4.396;2023-02-01T17:33:54;15.23;;;4.18;;
23159;SDS011;11748;50.844;4.396;2023-02-01T17:36:19;15.88;;;3.65;;
23159;SDS011;11748;50.844;4.396;2023-02-01T17:38:45;13.93;;;2.97;;
23159;SDS011;11748;50.844;4.396;2023-02-01T17:41:11;22.65;;;3.90;;
23159;SDS011;11748;50.844;4.396;2023-02-01T17:43:38;16.20;;;3.35;;
23159;SDS011;11748;50.844;4.396;2023-02-01T17:46:05;15.55;;;3.53;;
23159;SDS011;11748;50.844;4.396;2023-02-01T17:48:36;12.55;;;3.28;;
23159;SDS011;11748;50.844;4.396;2023-02-01T17:51:04;17.75;;;3.95;;
23159;SDS011;11748;50.844;4.396;2023-02-01T17:53:39;22.30;;;3.78;;
23159;SDS011;11748;50.844;4.396;2023-02-01T17:56:05;12.88;;;3.53;;
23159;SDS011;11748;50.844;4.396;2023-02-01T17:58:37;14.63;;;3.92;;
23159;SDS011;11748;50.844;4.396;2023-02-01T18:01:02;21.17;;;3.97;;
23159;SDS011;11748;50.844;4.396;2023-02-01T18:03:29;20.67;;;3.83;;
23159;SDS011;11748;50.844;4.396;2023-02-01T18:05:58;14.77;;;3.70;;
23159;SDS011;11748;50.844;4.396;2023-02-01T18:08:26;16.58;;;3.30;;
23159;SDS011;11748;50.844;4.396;2023-02-01T18:10:54;19.08;;;3.83;;
23159;SDS011;11748;50.844;4.396;2023-02-01T18:13:24;21.25;;;4.00;;
23159;SDS011;11748;50.844;4.396;2023-02-01T18:15:55;15.57;;;3.67;;
23159;SDS011;11748;50.844;4.396;2023-02-01T18:18:23;18.90;;;3.60;;
23159;SDS011;11748;50.844;4.396;2023-02-01T18:20:48;19.67;;;3.85;;
23159;SDS011;11748;50.844;4.396;2023-02-01T18:23:18;20.98;;;3.55;;